Time;durP1;ratioP1;P1;durP2;ratioP2;P2;SDS_P1;SDS_P2;PMS_P1;PMS_P2;Temp;Humidity;BMP_temperature;BMP_pressure;BME280_temperature;BME280_humidity;BME280_pressure;Samples;Min_cycle;Max_cycle;Signal;HPM_P1;HPM_P2
2022/05/21 00:00:01;;;;;;;;;;;;;;;;;;5072389;28;19913;-48
2022/05/21 00:02:28;;;;;;;;;;;;;;;;;;5071447;28;19909;-53
2022/05/21 00:04:54;;;;;;;;;;;;;;;;;;5071795;28;19912;-43
2022/05/21 00:07:21;;;;;;;;;;;;;;;;;;5071731;28;20015;-41
2022/05/21 00:09:47;;;;;;;;;;;;;;;;;;5072286;28;19954;-39
2022/05/21 00:12:14;;;;;;;;;;;;;;;;;;5071849;28;20008;-45
2022/05/21 00:14:40;;;;;;;;;;;;;;;;;;5071711;28;19909;-45
2022/05/21 00:17:07;;;;;;;;;;;;;;;;;;5071057;28;19938;-52
2022/05/21 00:19:33;;;;;;;;;;;;;;;;;;5071992;28;19908;-53
2022/05/21 00:21:59;;;;;;;;;;;;;;;;;;5071828;28;19909;-52
2022/05/21 00:24:26;;;;;;;;;;;;;;;;;;5070427;28;19909;-56
2022/05/21 00:26:53;;;;;;;;;;;;;;;;;;5071441;28;20025;-48
2022/05/21 00:29:20;;;;;;;;;;;;;;;;;;5071865;28;20053;-51
2022/05/21 00:31:46;;;;;;;;;;;;;;;;;;5071669;28;19909;-43
2022/05/21 00:34:13;;;;;;;;;;;;;;;;;;5071855;28;19948;-41
2022/05/21 00:36:39;;;;;;;;;;;;;;;;;;5070917;28;20304;-51
2022/05/21 00:39:06;;;;;;;;;;;;;;;;;;5071922;28;19915;-57
2022/05/21 00:41:32;;;;;;;;;;;;;;;;;;5071474;28;20275;-55
2022/05/21 00:43:59;;;;;;;;;;;;;;;;;;5071512;28;19908;-54
2022/05/21 00:46:25;;;;;;;;;;;;;;;;;;5071511;28;19916;-58
2022/05/21 00:48:53;;;;;;;;;;;;;;;;;;5070882;28;19940;-55
2022/05/21 00:51:20;;;;;;;;;;;;;;;;;;5071633;28;20363;-56
2022/05/21 00:53:47;;;;;;;;;;;;;;;;;;5071705;28;19909;-57
2022/05/21 00:56:13;;;;;;;;;;;;;;;;;;5071587;28;19916;-62
2022/05/21 01:01:24;;;;;;;;;;;;;;;;;;5071777;28;20283;-60
2022/05/21 01:03:50;;;;;;;;;;;;;;;;;;5071879;28;19999;-52
2022/05/21 01:06:17;;;;;;;;;;;;;;;;;;5071522;28;19909;-52
2022/05/21 01:08:43;;;;;;;;;;;;;;;;;;5071577;28;19966;-58
2022/05/21 01:11:11;;;;;;;;;;;;;;;;;;5071899;28;19940;-48
2022/05/21 01:13:38;;;;;;;;;;;;;;;;;;5071669;28;19973;-47
2022/05/21 01:16:04;;;;;;;;;;;;;;;;;;5071934;28;19909;-46
2022/05/21 01:18:31;;;;;;;;;;;;;;;;;;5071415;28;19955;-44
2022/05/21 01:20:57;;;;;;;;;;;;;;;;;;5072210;28;19913;-41
2022/05/21 01:23:24;;;;;;;;;;;;;;;;;;5071965;28;19909;-43
2022/05/21 01:25:50;;;;;;;;;;;;;;;;;;5071781;28;20008;-55
2022/05/21 01:28:17;;;;;;;;;;;;;;;;;;5074333;28;19986;-50
2022/05/21 01:30:43;;;;;;;;;;;;;;;;;;5075381;28;19908;-46
2022/05/21 01:33:10;;;;;;;;;;;;;;;;;;5075250;28;20235;-39
2022/05/21 01:35:36;;;;;;;;;;;;;;;;;;5075342;28;19908;-52
2022/05/21 01:38:02;;;;;;;;;;;;;;;;;;5075560;28;19999;-56
2022/05/21 01:40:29;;;;;;;;;;;;;;;;;;5075086;28;19909;-47
2022/05/21 01:45:40;;;;;;;;;;;;;;;;;;5074750;28;19915;-50
2022/05/21 01:48:07;;;;;;;;;;;;;;;;;;5074748;28;20291;-46
2022/05/21 01:50:33;;;;;;;;;;;;;;;;;;5074539;28;19947;-52
2022/05/21 01:53:00;;;;;;;;;;;;;;;;;;5075152;28;19910;-49
2022/05/21 01:55:26;;;;;;;;;;;;;;;;;;5075012;28;19908;-51
2022/05/21 01:57:52;;;;;;;;;;;;;;;;;;5075137;28;19905;-47
2022/05/21 02:00:19;;;;;;;;;;;;;;;;;;5074437;28;19931;-46
2022/05/21 02:02:45;;;;;;;;;;;;;;;;;;5073875;28;19915;-42
2022/05/21 02:05:12;;;;;;;;;;;;;;;;;;5073810;28;19908;-56
2022/05/21 02:07:38;;;;;;;;;;;;;;;;;;5074039;28;19961;-43
2022/05/21 02:10:05;;;;;;;;;;;;;;;;;;5074165;28;19909;-52
2022/05/21 02:12:32;;;;;;;;;;;;;;;;;;5073748;28;19920;-50
2022/05/21 02:14:58;;;;;;;;;;;;;;;;;;5073646;28;19908;-43
2022/05/21 02:17:25;;;;;;;;;;;;;;;;;;5073670;28;19958;-43
2022/05/21 02:19:51;;;;;;;;;;;;;;;;;;5073903;28;20363;-45
2022/05/21 02:22:18;;;;;;;;;;;;;;;;;;5074273;28;19977;-50
2022/05/21 02:24:44;;;;;;;;;;;;;;;;;;5074020;28;20023;-59
2022/05/21 02:27:11;;;;;;;;;;;;;;;;;;5074083;28;19916;-49
2022/05/21 02:29:37;;;;;;;;;;;;;;;;;;5071925;28;19917;-49
2022/05/21 02:32:04;;;;;;;;;;;;;;;;;;5073396;28;19909;-46
2022/05/21 02:34:31;;;;;;;;;;;;;;;;;;5073250;28;19915;-45
2022/05/21 02:39:42;;;;;;;;;;;;;;;;;;5072736;28;20279;-55
2022/05/21 02:42:43;;;;;;;;;;;;;;;;;;5073693;28;19908;-45
2022/05/21 02:44:55;;;;;;;;;;;;;;;;;;5073803;28;19944;-46
2022/05/21 02:47:21;;;;;;;;;;;;;;;;;;5072709;28;19916;-54
2022/05/21 02:49:48;;;;;;;;;;;;;;;;;;5072707;28;19912;-56
2022/05/21 02:52:15;;;;;;;;;;;;;;;;;;5073209;28;20304;-58
2022/05/21 02:54:41;;;;;;;;;;;;;;;;;;5073297;28;19916;-44
2022/05/21 02:57:08;;;;;;;;;;;;;;;;;;5072764;28;19909;-42
2022/05/21 02:59:35;;;;;;;;;;;;;;;;;;5073304;28;19915;-42
2022/05/21 03:02:01;;;;;;;;;;;;;;;;;;5073398;28;20278;-47
2022/05/21 03:04:28;;;;;;;;;;;;;;;;;;5072811;28;19915;-45
2022/05/21 03:06:54;;;;;;;;;;;;;;;;;;5073405;28;20011;-42
2022/05/21 03:12:05;;;;;;;;;;;;;;;;;;5073251;28;20006;-41
2022/05/21 03:14:31;;;;;;;;;;;;;;;;;;5073985;28;19927;-42
2022/05/21 03:17:01;;;;;;;;;;;;;;;;;;5073069;28;19948;-46
2022/05/21 03:19:28;;;;;;;;;;;;;;;;;;5073040;28;20363;-46
2022/05/21 03:21:54;;;;;;;;;;;;;;;;;;5073081;28;19904;-52
2022/05/21 03:24:20;;;;;;;;;;;;;;;;;;5073858;28;19939;-52
2022/05/21 03:26:47;;;;;;;;;;;;;;;;;;5073296;28;20322;-52
2022/05/21 03:29:13;;;;;;;;;;;;;;;;;;5073035;28;19917;-52
2022/05/21 03:31:40;;;;;;;;;;;;;;;;;;5072963;28;20003;-54
2022/05/21 03:34:06;;;;;;;;;;;;;;;;;;5072871;28;19908;-57
2022/05/21 03:36:33;;;;;;;;;;;;;;;;;;5071730;28;19973;-47
2022/05/21 03:39:00;;;;;;;;;;;;;;;;;;5072992;28;20057;-44
2022/05/21 03:41:26;;;;;;;;;;;;;;;;;;5073712;28;19909;-60
2022/05/21 03:43:52;;;;;;;;;;;;;;;;;;5072428;28;19954;-48
2022/05/21 03:46:19;;;;;;;;;;;;;;;;;;5073584;28;19970;-43
2022/05/21 03:48:45;;;;;;;;;;;;;;;;;;5072006;28;19916;-43
2022/05/21 03:51:12;;;;;;;;;;;;;;;;;;5071774;28;19991;-54
2022/05/21 03:53:38;;;;;;;;;;;;;;;;;;5072642;28;19912;-48
2022/05/21 03:56:05;;;;;;;;;;;;;;;;;;5072177;28;19909;-54
2022/05/21 03:58:31;;;;;;;;;;;;;;;;;;5072188;28;19919;-51
2022/05/21 04:00:58;;;;;;;;;;;;;;;;;;5071236;28;19912;-55
2022/05/21 04:03:24;;;;;;;;;;;;;;;;;;5071553;28;19991;-40
2022/05/21 04:05:51;;;;;;;;;;;;;;;;;;5072005;28;20274;-55
2022/05/21 04:08:17;;;;;;;;;;;;;;;;;;5072314;28;19942;-49
2022/05/21 04:10:44;;;;;;;;;;;;;;;;;;5071884;28;19913;-57
2022/05/21 04:13:10;;;;;;;;;;;;;;;;;;5071615;28;19921;-43
2022/05/21 04:15:37;;;;;;;;;;;;;;;;;;5071646;28;19909;-48
2022/05/21 04:18:03;;;;;;;;;;;;;;;;;;5071617;28;19913;-50
2022/05/21 04:20:30;;;;;;;;;;;;;;;;;;5071884;28;20022;-47
2022/05/21 04:22:56;;;;;;;;;;;;;;;;;;5071975;28;19915;-48
2022/05/21 04:25:22;;;;;;;;;;;;;;;;;;5071473;28;19954;-54
2022/05/21 04:27:49;;;;;;;;;;;;;;;;;;5069785;28;20367;-45
2022/05/21 04:30:16;;;;;;;;;;;;;;;;;;5071703;28;19909;-51
2022/05/21 04:32:43;;;;;;;;;;;;;;;;;;5071308;28;20590;-40
2022/05/21 04:35:09;;;;;;;;;;;;;;;;;;5071762;28;19908;-39
2022/05/21 04:37:36;;;;;;;;;;;;;;;;;;5071664;28;19909;-43
2022/05/21 04:40:02;;;;;;;;;;;;;;;;;;5071874;28;20367;-38
2022/05/21 04:42:29;;;;;;;;;;;;;;;;;;5071253;28;20263;-39
2022/05/21 04:44:55;;;;;;;;;;;;;;;;;;5071491;28;20292;-38
2022/05/21 04:47:22;;;;;;;;;;;;;;;;;;5071184;28;20275;-47
2022/05/21 04:49:48;;;;;;;;;;;;;;;;;;5070179;28;19947;-46
2022/05/21 04:52:15;;;;;;;;;;;;;;;;;;5071725;28;19908;-58
2022/05/21 04:54:41;;;;;;;;;;;;;;;;;;5069877;28;19981;-53
2022/05/21 04:57:08;;;;;;;;;;;;;;;;;;5071601;28;19915;-53
2022/05/21 04:59:34;;;;;;;;;;;;;;;;;;5070760;28;19915;-54
2022/05/21 05:02:01;;;;;;;;;;;;;;;;;;5072550;28;19909;-49
2022/05/21 05:04:27;;;;;;;;;;;;;;;;;;5075246;28;19915;-53
2022/05/21 05:06:54;;;;;;;;;;;;;;;;;;5075628;28;19967;-49
2022/05/21 05:09:22;;;;;;;;;;;;;;;;;;5075266;28;19916;-52
2022/05/21 05:11:49;;;;;;;;;;;;;;;;;;5074916;28;19908;-48
2022/05/21 05:14:15;;;;;;;;;;;;;;;;;;5074520;28;19924;-43
2022/05/21 05:16:42;;;;;;;;;;;;;;;;;;5074978;28;19916;-42
2022/05/21 05:19:09;;;;;;;;;;;;;;;;;;5075222;28;20003;-42
2022/05/21 05:21:36;;;;;;;;;;;;;;;;;;5075319;28;20097;-50
2022/05/21 05:24:02;;;;;;;;;;;;;;;;;;5075398;28;20294;-47
2022/05/21 05:26:29;;;;;;;;;;;;;;;;;;5073542;28;20429;-46
2022/05/21 05:28:56;;;;;;;;;;;;;;;;;;5073550;28;19916;-43
2022/05/21 05:31:22;;;;;;;;;;;;;;;;;;5075169;28;20343;-48
2022/05/21 05:33:49;;;;;;;;;;;;;;;;;;5074499;28;19966;-49
2022/05/21 05:36:16;;;;;;;;;;;;;;;;;;5075092;28;19915;-50
2022/05/21 05:38:42;;;;;;;;;;;;;;;;;;5075084;28;19909;-49
2022/05/21 05:41:09;;;;;;;;;;;;;;;;;;5074548;28;19908;-47
2022/05/21 05:43:35;;;;;;;;;;;;;;;;;;5074959;28;19908;-43
2022/05/21 05:46:02;;;;;;;;;;;;;;;;;;5064064;28;20260;-47
2022/05/21 05:48:28;;;;;;;;;;;;;;;;;;5033751;28;19933;-40
2022/05/21 05:50:55;;;;;;;;;;;;;;;;;;5034837;28;19930;-48
2022/05/21 05:53:22;;;;;;;;;;;;;;;;;;5034390;28;20364;-49
2022/05/21 05:55:48;;;;;;;;;;;;;;;;;;5034075;28;20340;-45
2022/05/21 06:00:59;;;;;;;;;;;;;;;;;;5034034;28;19916;-45
2022/05/21 06:03:26;;;;;;;;;;;;;;;;;;5034313;28;19909;-41
2022/05/21 06:05:53;;;;;;;;;;;;;;;;;;5033061;28;20319;-46
2022/05/21 06:08:19;;;;;;;;;;;;;;;;;;5032897;28;19917;-46
2022/05/21 06:10:48;;;;;;;;;;;;;;;;;;5033130;28;19939;-53
2022/05/21 06:13:14;;;;;;;;;;;;;;;;;;5033290;28;19967;-46
2022/05/21 06:15:41;;;;;;;;;;;;;;;;;;5033669;28;20065;-44
2022/05/21 06:18:07;;;;;;;;;;;;;;;;;;5033829;28;19916;-41
2022/05/21 06:20:34;;;;;;;;;;;;;;;;;;5033806;28;20352;-44
2022/05/21 06:23:00;;;;;;;;;;;;;;;;;;5034193;28;19913;-45
2022/05/21 06:25:29;;;;;;;;;;;;;;;;;;5033712;28;19909;-43
2022/05/21 06:27:55;;;;;;;;;;;;;;;;;;5033635;28;19923;-43
2022/05/21 06:30:22;;;;;;;;;;;;;;;;;;5033953;28;20002;-42
2022/05/21 06:32:48;;;;;;;;;;;;;;;;;;5033707;28;19916;-45
2022/05/21 06:35:15;;;;;;;;;;;;;;;;;;5034060;28;20000;-42
2022/05/21 06:37:41;;;;;;;;;;;;;;;;;;5032302;28;19913;-46
2022/05/21 06:40:07;;;;;;;;;;;;;;;;;;5034090;28;20387;-44
2022/05/21 06:42:34;;;;;;;;;;;;;;;;;;5033685;28;20386;-40
2022/05/21 06:45:00;;;;;;;;;;;;;;;;;;5034000;28;20367;-51
2022/05/21 06:47:27;;;;;;;;;;;;;;;;;;5033815;28;19910;-47
2022/05/21 06:49:55;;;;;;;;;;;;;;;;;;5033664;28;19915;-44
2022/05/21 06:52:22;;;;;;;;;;;;;;;;;;5033920;28;19944;-46
2022/05/21 06:54:48;;;;;;;;;;;;;;;;;;5033771;28;19944;-45
2022/05/21 06:57:15;;;;;;;;;;;;;;;;;;5033353;28;19935;-46
2022/05/21 06:59:41;;;;;;;;;;;;;;;;;;5033525;28;20550;-41
2022/05/21 07:02:08;;;;;;;;;;;;;;;;;;5033019;28;20012;-45
2022/05/21 07:07:43;;;;;;;;;;;;;;;;;;5032868;28;20252;-46
2022/05/21 07:10:09;;;;;;;;;;;;;;;;;;5065097;28;20276;-46
2022/05/21 07:12:36;;;;;;;;;;;;;;;;;;5032440;28;20276;-45
2022/05/21 07:15:02;;;;;;;;;;;;;;;;;;5032917;28;19909;-47
2022/05/21 07:17:29;;;;;;;;;;;;;;;;;;5032493;28;19909;-48
2022/05/21 07:19:55;;;;;;;;;;;;;;;;;;5033378;28;19916;-45
2022/05/21 07:22:22;;;;;;;;;;;;;;;;;;5033153;28;19913;-44
2022/05/21 07:24:48;;;;;;;;;;;;;;;;;;5064478;28;19980;-45
2022/05/21 07:27:15;;;;;;;;;;;;;;;;;;5033305;28;20320;-45
2022/05/21 07:29:42;;;;;;;;;;;;;;;;;;5033178;28;20256;-51
2022/05/21 07:32:08;;;;;;;;;;;;;;;;;;5032752;28;19909;-43
2022/05/21 07:34:35;;;;;;;;;;;;;;;;;;5032063;28;20287;-46
2022/05/21 07:37:01;;;;;;;;;;;;;;;;;;5032943;28;19925;-47
2022/05/21 07:39:28;;;;;;;;;;;;;;;;;;5033023;28;19909;-41
2022/05/21 07:41:54;;;;;;;;;;;;;;;;;;5032549;28;19957;-51
2022/05/21 07:44:21;;;;;;;;;;;;;;;;;;5064192;28;19999;-45
2022/05/21 07:46:47;;;;;;;;;;;;;;;;;;5031836;28;19944;-47
2022/05/21 07:49:14;;;;;;;;;;;;;;;;;;5032135;28;19928;-50
2022/05/21 07:51:40;;;;;;;;;;;;;;;;;;5032127;28;19909;-44
2022/05/21 07:54:07;;;;;;;;;;;;;;;;;;5032597;28;19909;-47
2022/05/21 07:56:33;;;;;;;;;;;;;;;;;;5031859;28;19957;-50
2022/05/21 07:59:00;;;;;;;;;;;;;;;;;;5032201;28;19913;-45
2022/05/21 08:01:26;;;;;;;;;;;;;;;;;;5032382;28;19915;-44
2022/05/21 08:03:53;;;;;;;;;;;;;;;;;;5032011;28;20969;-46
2022/05/21 08:06:19;;;;;;;;;;;;;;;;;;5051311;28;20312;-42
2022/05/21 08:08:46;;;;;;;;;;;;;;;;;;5049909;28;20405;-39
2022/05/21 08:11:12;;;;;;;;;;;;;;;;;;5049329;28;19913;-40
2022/05/21 08:13:39;;;;;;;;;;;;;;;;;;5048721;28;19921;-41
2022/05/21 08:16:06;;;;;;;;;;;;;;;;;;5049805;28;19909;-46
2022/05/21 08:18:32;;;;;;;;;;;;;;;;;;5047666;28;20336;-44
2022/05/21 08:20:59;;;;;;;;;;;;;;;;;;5050496;28;19912;-45
2022/05/21 08:28:55;;;;;;;;;;;;;;;;;;5048529;28;20382;-41
2022/05/21 08:31:21;;;;;;;;;;;;;;;;;;5049527;28;20168;-53
2022/05/21 08:33:48;;;;;;;;;;;;;;;;;;5049429;28;20276;-46
2022/05/21 08:36:14;;;;;;;;;;;;;;;;;;5051197;28;20288;-42
2022/05/21 08:38:41;;;;;;;;;;;;;;;;;;5056673;28;19908;-43
2022/05/21 08:41:07;;;;;;;;;;;;;;;;;;5056571;28;19996;-53
2022/05/21 08:43:34;;;;;;;;;;;;;;;;;;5054946;28;20003;-44
2022/05/21 08:46:00;;;;;;;;;;;;;;;;;;5056959;28;19909;-48
2022/05/21 08:48:27;;;;;;;;;;;;;;;;;;5056081;28;20540;-44
2022/05/21 08:50:54;;;;;;;;;;;;;;;;;;5054481;28;19941;-43
2022/05/21 08:53:20;;;;;;;;;;;;;;;;;;5052018;28;20792;-45
2022/05/21 08:55:47;;;;;;;;;;;;;;;;;;5054303;28;19932;-45
2022/05/21 08:58:13;;;;;;;;;;;;;;;;;;5054557;28;19908;-45
2022/05/21 09:00:40;;;;;;;;;;;;;;;;;;5054142;28;19916;-50
2022/05/21 09:03:06;;;;;;;;;;;;;;;;;;5053674;28;19955;-44
2022/05/21 09:05:33;;;;;;;;;;;;;;;;;;5054849;28;20348;-46
2022/05/21 09:08:02;;;;;;;;;;;;;;;;;;5055969;28;19952;-54
2022/05/21 09:10:29;;;;;;;;;;;;;;;;;;5055854;28;20296;-62
2022/05/21 09:12:55;;;;;;;;;;;;;;;;;;5052957;28;19921;-61
2022/05/21 09:18:07;;;;;;;;;;;;;;;;;;5057911;28;20331;-46
2022/05/21 09:20:33;;;;;;;;;;;;;;;;;;5055637;28;19916;-41
2022/05/21 09:23:01;;;;;;;;;;;;;;;;;;5055510;28;19935;-55
2022/05/21 09:25:28;;;;;;;;;;;;;;;;;;5053179;28;19936;-56
2022/05/21 09:27:54;;;;;;;;;;;;;;;;;;5055521;28;20287;-57
2022/05/21 09:30:21;;;;;;;;;;;;;;;;;;5055214;28;19909;-56
2022/05/21 09:32:49;;;;;;;;;;;;;;;;;;5054903;28;19912;-56
2022/05/21 09:35:16;;;;;;;;;;;;;;;;;;5052946;28;19936;-53
2022/05/21 09:37:42;;;;;;;;;;;;;;;;;;5055900;28;19912;-57
2022/05/21 09:40:08;;;;;;;;;;;;;;;;;;5055978;28;19923;-60
2022/05/21 09:45:23;;;;;;;;;;;;;;;;;;5052678;28;19995;-57
2022/05/21 09:47:49;;;;;;;;;;;;;;;;;;5054596;28;20103;-52
2022/05/21 09:50:16;;;;;;;;;;;;;;;;;;5051948;28;19909;-53
2022/05/21 09:52:43;;;;;;;;;;;;;;;;;;5052175;28;19919;-51
2022/05/21 09:55:09;;;;;;;;;;;;;;;;;;5050351;28;19909;-49
2022/05/21 09:57:37;;;;;;;;;;;;;;;;;;5051689;28;19913;-45
2022/05/21 10:00:04;;;;;;;;;;;;;;;;;;5052543;28;19908;-45
2022/05/21 10:02:31;;;;;;;;;;;;;;;;;;5051938;28;19970;-46
2022/05/21 10:04:57;;;;;;;;;;;;;;;;;;5054963;28;19915;-41
2022/05/21 10:12:52;;;;;;;;;;;;;;;;;;5048027;28;20062;-56
2022/05/21 10:15:20;;;;;;;;;;;;;;;;;;5052133;28;19915;-58
2022/05/21 10:17:47;;;;;;;;;;;;;;;;;;5053828;28;19916;-58
2022/05/21 10:20:13;;;;;;;;;;;;;;;;;;5054371;28;19952;-52
2022/05/21 10:22:40;;;;;;;;;;;;;;;;;;5053005;28;19916;-52
2022/05/21 10:25:06;;;;;;;;;;;;;;;;;;5052474;28;19909;-43
2022/05/21 10:27:33;;;;;;;;;;;;;;;;;;5052467;28;20366;-54
2022/05/21 10:29:59;;;;;;;;;;;;;;;;;;5052516;28;20567;-53
2022/05/21 10:32:25;;;;;;;;;;;;;;;;;;5052541;28;20012;-55
2022/05/21 10:34:52;;;;;;;;;;;;;;;;;;5052006;28;19913;-51
2022/05/21 10:37:18;;;;;;;;;;;;;;;;;;5052064;28;19955;-52
2022/05/21 10:39:45;;;;;;;;;;;;;;;;;;5054112;28;19959;-50
2022/05/21 10:42:11;;;;;;;;;;;;;;;;;;5054299;28;19913;-55
2022/05/21 10:44:38;;;;;;;;;;;;;;;;;;5052941;28;19913;-54
2022/05/21 10:47:08;;;;;;;;;;;;;;;;;;5054004;28;20000;-55
2022/05/21 10:49:34;;;;;;;;;;;;;;;;;;5053974;28;19925;-57
2022/05/21 10:52:01;;;;;;;;;;;;;;;;;;5052719;28;19909;-53
2022/05/21 10:54:28;;;;;;;;;;;;;;;;;;5052347;28;19912;-55
2022/05/21 10:56:56;;;;;;;;;;;;;;;;;;5054172;28;20378;-49
2022/05/21 10:59:22;;;;;;;;;;;;;;;;;;5053610;28;19905;-50
2022/05/21 11:01:49;;;;;;;;;;;;;;;;;;5053633;28;19955;-60
2022/05/21 11:04:15;;;;;;;;;;;;;;;;;;5052500;28;19908;-53
2022/05/21 11:06:42;;;;;;;;;;;;;;;;;;5053406;28;19920;-55
2022/05/21 11:09:08;;;;;;;;;;;;;;;;;;5053924;28;19920;-58
2022/05/21 11:11:37;;;;;;;;;;;;;;;;;;5053720;28;20322;-52
2022/05/21 11:14:03;;;;;;;;;;;;;;;;;;5053487;28;19921;-52
2022/05/21 11:16:29;;;;;;;;;;;;;;;;;;5053415;28;19916;-54
2022/05/21 11:18:56;;;;;;;;;;;;;;;;;;5053500;28;20027;-57
2022/05/21 11:21:22;;;;;;;;;;;;;;;;;;5053638;28;19952;-60
2022/05/21 11:23:49;;;;;;;;;;;;;;;;;;5053486;28;19916;-53
2022/05/21 11:26:16;;;;;;;;;;;;;;;;;;5053667;28;19909;-52
2022/05/21 11:28:43;;;;;;;;;;;;;;;;;;5052960;28;19982;-57
2022/05/21 11:31:10;;;;;;;;;;;;;;;;;;5052643;28;19913;-53
2022/05/21 11:39:06;;;;;;;;;;;;;;;;;;5053218;28;19916;-52
2022/05/21 11:41:32;;;;;;;;;;;;;;;;;;5052853;28;20382;-48
2022/05/21 11:44:55;;;;;;;;;;;;;;;;;;5052880;28;20419;-49
2022/05/21 11:46:45;;;;;;;;;;;;;;;;;;5052591;28;19913;-45
2022/05/21 11:49:11;;;;;;;;;;;;;;;;;;5052869;28;19917;-45
2022/05/21 11:51:38;;;;;;;;;;;;;;;;;;5052503;28;19909;-51
2022/05/21 11:54:04;;;;;;;;;;;;;;;;;;5052929;28;19909;-48
2022/05/21 11:56:30;;;;;;;;;;;;;;;;;;5052422;28;19961;-47
2022/05/21 11:58:57;;;;;;;;;;;;;;;;;;5052736;28;19909;-53
2022/05/21 12:01:24;;;;;;;;;;;;;;;;;;5052722;28;19909;-53
2022/05/21 12:03:50;;;;;;;;;;;;;;;;;;5052793;28;20339;-47
2022/05/21 12:06:17;;;;;;;;;;;;;;;;;;5052738;28;19936;-53
2022/05/21 12:08:44;;;;;;;;;;;;;;;;;;5052343;28;19964;-50
2022/05/21 12:11:11;;;;;;;;;;;;;;;;;;5051284;28;19916;-43
2022/05/21 12:13:40;;;;;;;;;;;;;;;;;;5052118;28;19928;-44
2022/05/21 12:16:07;;;;;;;;;;;;;;;;;;5052285;28;19912;-50
2022/05/21 12:18:33;;;;;;;;;;;;;;;;;;5052248;28;19909;-52
2022/05/21 12:21:00;;;;;;;;;;;;;;;;;;5052335;28;19990;-49
2022/05/21 12:23:26;;;;;;;;;;;;;;;;;;5052254;28;19912;-43
2022/05/21 12:25:53;;;;;;;;;;;;;;;;;;5052242;28;19908;-46
2022/05/21 12:28:19;;;;;;;;;;;;;;;;;;5052038;28;19957;-50
2022/05/21 12:30:46;;;;;;;;;;;;;;;;;;5052023;28;19916;-54
2022/05/21 12:33:13;;;;;;;;;;;;;;;;;;5052279;28;19931;-52
2022/05/21 12:35:44;;;;;;;;;;;;;;;;;;5052108;28;19923;-50
2022/05/21 12:38:10;;;;;;;;;;;;;;;;;;5052475;28;20008;-52
2022/05/21 12:40:37;;;;;;;;;;;;;;;;;;5052333;28;19909;-59
2022/05/21 12:43:03;;;;;;;;;;;;;;;;;;5051859;28;19939;-43
2022/05/21 12:45:30;;;;;;;;;;;;;;;;;;5051832;28;19909;-48
2022/05/21 12:47:56;;;;;;;;;;;;;;;;;;5052373;28;20017;-49
2022/05/21 12:50:23;;;;;;;;;;;;;;;;;;5052044;28;19916;-55
2022/05/21 12:52:49;;;;;;;;;;;;;;;;;;5051509;28;19921;-53
2022/05/21 12:55:16;;;;;;;;;;;;;;;;;;5052204;28;19909;-54
2022/05/21 12:57:42;;;;;;;;;;;;;;;;;;5051875;28;20270;-55
2022/05/21 13:00:09;;;;;;;;;;;;;;;;;;5052011;28;19999;-56
2022/05/21 13:02:35;;;;;;;;;;;;;;;;;;5051723;28;19909;-48
2022/05/21 13:05:02;;;;;;;;;;;;;;;;;;5051965;28;20264;-47
2022/05/21 13:07:28;;;;;;;;;;;;;;;;;;5051651;28;19909;-46
2022/05/21 13:09:57;;;;;;;;;;;;;;;;;;5052050;28;19917;-52
2022/05/21 13:12:23;;;;;;;;;;;;;;;;;;5051347;28;19917;-52
2022/05/21 13:14:50;;;;;;;;;;;;;;;;;;5051532;28;19913;-46
2022/05/21 13:17:17;;;;;;;;;;;;;;;;;;5055903;28;19912;-56
2022/05/21 13:19:44;;;;;;;;;;;;;;;;;;5071449;28;19913;-58
2022/05/21 13:22:10;;;;;;;;;;;;;;;;;;5071648;28;19959;-44
2022/05/21 13:24:37;;;;;;;;;;;;;;;;;;5075332;28;19916;-55
2022/05/21 13:27:03;;;;;;;;;;;;;;;;;;5075783;28;19909;-55
2022/05/21 13:29:30;;;;;;;;;;;;;;;;;;5075092;28;19917;-57
2022/05/21 13:31:56;;;;;;;;;;;;;;;;;;5075456;28;19981;-57
2022/05/21 13:34:23;;;;;;;;;;;;;;;;;;5075357;28;20401;-56
2022/05/21 13:36:49;;;;;;;;;;;;;;;;;;5075194;28;19987;-56
2022/05/21 13:39:16;;;;;;;;;;;;;;;;;;5075598;28;20358;-53
2022/05/21 13:41:42;;;;;;;;;;;;;;;;;;5075164;28;20385;-58
2022/05/21 13:44:08;;;;;;;;;;;;;;;;;;5074896;28;19908;-57
2022/05/21 13:46:35;;;;;;;;;;;;;;;;;;5074906;28;19943;-57
2022/05/21 13:49:01;;;;;;;;;;;;;;;;;;5073918;28;19923;-54
2022/05/21 13:51:28;;;;;;;;;;;;;;;;;;5075059;28;19962;-55
2022/05/21 13:53:56;;;;;;;;;;;;;;;;;;5074650;28;19977;-57
2022/05/21 13:56:23;;;;;;;;;;;;;;;;;;5074950;28;19908;-51
2022/05/21 13:58:51;;;;;;;;;;;;;;;;;;5074812;28;19962;-57
2022/05/21 14:01:17;;;;;;;;;;;;;;;;;;5074507;28;19916;-55
2022/05/21 14:03:43;;;;;;;;;;;;;;;;;;5074355;28;20022;-58
2022/05/21 14:06:10;;;;;;;;;;;;;;;;;;5075129;28;20432;-56
2022/05/21 14:08:36;;;;;;;;;;;;;;;;;;5074713;28;20340;-57
2022/05/21 14:11:03;;;;;;;;;;;;;;;;;;5074495;28;19912;-57
2022/05/21 14:13:29;;;;;;;;;;;;;;;;;;5074054;28;19927;-56
2022/05/21 14:15:56;;;;;;;;;;;;;;;;;;5074318;28;20367;-55
2022/05/21 14:18:22;;;;;;;;;;;;;;;;;;5074591;28;20290;-53
2022/05/21 14:20:49;;;;;;;;;;;;;;;;;;5074179;28;20353;-57
2022/05/21 14:23:19;;;;;;;;;;;;;;;;;;5074146;28;20260;-52
2022/05/21 14:25:45;;;;;;;;;;;;;;;;;;5074157;28;19924;-57
2022/05/21 14:28:12;;;;;;;;;;;;;;;;;;5074106;28;20392;-57
2022/05/21 14:30:38;;;;;;;;;;;;;;;;;;5074027;28;20406;-57
2022/05/21 14:33:05;;;;;;;;;;;;;;;;;;5074262;28;20050;-46
2022/05/21 14:35:32;;;;;;;;;;;;;;;;;;5072939;28;19909;-55
2022/05/21 14:37:58;;;;;;;;;;;;;;;;;;5074150;28;19993;-53
2022/05/21 14:40:25;;;;;;;;;;;;;;;;;;5074258;28;19909;-57
2022/05/21 14:42:51;;;;;;;;;;;;;;;;;;5073994;28;19936;-56
2022/05/21 14:45:18;;;;;;;;;;;;;;;;;;5073758;28;20232;-57
2022/05/21 14:47:53;;;;;;;;;;;;;;;;;;5073804;28;19934;-54
2022/05/21 14:53:04;;;;;;;;;;;;;;;;;;5074009;28;19915;-57
2022/05/21 14:55:32;;;;;;;;;;;;;;;;;;5073632;28;20465;-54
2022/05/21 14:57:58;;;;;;;;;;;;;;;;;;5074034;28;19908;-57
2022/05/21 15:00:25;;;;;;;;;;;;;;;;;;5073789;28;19908;-52
2022/05/21 15:02:51;;;;;;;;;;;;;;;;;;5073966;28;19994;-51
2022/05/21 15:05:18;;;;;;;;;;;;;;;;;;5073633;28;20003;-53
2022/05/21 15:07:47;;;;;;;;;;;;;;;;;;5073585;28;19962;-51
2022/05/21 15:10:14;;;;;;;;;;;;;;;;;;5074034;28;19992;-41
2022/05/21 15:12:40;;;;;;;;;;;;;;;;;;5073600;28;19920;-47
2022/05/21 15:15:07;;;;;;;;;;;;;;;;;;5073354;28;19955;-48
2022/05/21 15:17:33;;;;;;;;;;;;;;;;;;5073471;28;19926;-47
2022/05/21 15:20:00;;;;;;;;;;;;;;;;;;5073731;28;19909;-57
2022/05/21 15:22:28;;;;;;;;;;;;;;;;;;5073453;28;19908;-50
2022/05/21 15:24:54;;;;;;;;;;;;;;;;;;5073272;28;19908;-57
2022/05/21 15:27:21;;;;;;;;;;;;;;;;;;5073738;28;19908;-58
2022/05/21 15:29:47;;;;;;;;;;;;;;;;;;5071798;28;19920;-57
2022/05/21 15:32:14;;;;;;;;;;;;;;;;;;5073451;28;19977;-53
2022/05/21 15:34:41;;;;;;;;;;;;;;;;;;5071619;28;19913;-55
2022/05/21 15:37:09;;;;;;;;;;;;;;;;;;5071782;28;19913;-55
2022/05/21 15:39:35;;;;;;;;;;;;;;;;;;5072756;28;19909;-55
2022/05/21 15:42:02;;;;;;;;;;;;;;;;;;5073164;28;20346;-54
2022/05/21 15:44:28;;;;;;;;;;;;;;;;;;5072528;28;19912;-49
2022/05/21 15:46:55;;;;;;;;;;;;;;;;;;5072911;28;19908;-51
2022/05/21 15:49:21;;;;;;;;;;;;;;;;;;5072826;28;19916;-54
2022/05/21 15:51:48;;;;;;;;;;;;;;;;;;5072774;28;19919;-52
2022/05/21 15:54:14;;;;;;;;;;;;;;;;;;5072940;28;19912;-43
2022/05/21 15:56:41;;;;;;;;;;;;;;;;;;5072592;28;20382;-58
2022/05/21 15:59:07;;;;;;;;;;;;;;;;;;5073027;28;19999;-54
2022/05/21 16:01:34;;;;;;;;;;;;;;;;;;5072755;28;19909;-56
2022/05/21 16:04:00;;;;;;;;;;;;;;;;;;5073040;28;19969;-48
2022/05/21 16:06:27;;;;;;;;;;;;;;;;;;5072672;28;19920;-54
2022/05/21 16:08:53;;;;;;;;;;;;;;;;;;5072924;28;20380;-54
2022/05/21 16:11:20;;;;;;;;;;;;;;;;;;5071325;28;19999;-53
2022/05/21 16:13:46;;;;;;;;;;;;;;;;;;5072326;28;19920;-49
2022/05/21 16:16:12;;;;;;;;;;;;;;;;;;5072590;28;20379;-54
2022/05/21 16:18:43;;;;;;;;;;;;;;;;;;5072543;28;20282;-44
2022/05/21 16:21:09;;;;;;;;;;;;;;;;;;5072869;28;20220;-52
2022/05/21 16:23:36;;;;;;;;;;;;;;;;;;5072488;28;19908;-50
2022/05/21 16:26:02;;;;;;;;;;;;;;;;;;5072600;28;19926;-54
2022/05/21 16:28:29;;;;;;;;;;;;;;;;;;5072296;28;19939;-53
2022/05/21 16:30:56;;;;;;;;;;;;;;;;;;5072732;28;19908;-51
2022/05/21 16:33:22;;;;;;;;;;;;;;;;;;5072456;28;19913;-44
2022/05/21 16:35:49;;;;;;;;;;;;;;;;;;5072179;28;20363;-50
2022/05/21 16:38:15;;;;;;;;;;;;;;;;;;5072566;28;19908;-44
2022/05/21 16:40:42;;;;;;;;;;;;;;;;;;5072574;28;19912;-48
2022/05/21 16:43:08;;;;;;;;;;;;;;;;;;5072276;28;19912;-53
2022/05/21 16:45:34;;;;;;;;;;;;;;;;;;5072058;28;19909;-45
2022/05/21 16:48:01;;;;;;;;;;;;;;;;;;5072291;28;20359;-50
2022/05/21 16:50:28;;;;;;;;;;;;;;;;;;5072475;28;19909;-51
2022/05/21 16:52:54;;;;;;;;;;;;;;;;;;5072484;28;19981;-49
2022/05/21 16:55:21;;;;;;;;;;;;;;;;;;5072503;28;20393;-47
2022/05/21 16:57:47;;;;;;;;;;;;;;;;;;5072940;28;19915;-53
2022/05/21 17:00:14;;;;;;;;;;;;;;;;;;5076231;28;19909;-49
2022/05/21 17:02:41;;;;;;;;;;;;;;;;;;5076219;28;19919;-51
2022/05/21 17:05:10;;;;;;;;;;;;;;;;;;5076438;28;19908;-55
2022/05/21 17:07:38;;;;;;;;;;;;;;;;;;5076238;28;19982;-53
2022/05/21 17:10:04;;;;;;;;;;;;;;;;;;5076149;28;19916;-47
2022/05/21 17:12:30;;;;;;;;;;;;;;;;;;5075451;28;19935;-47
2022/05/21 17:14:57;;;;;;;;;;;;;;;;;;5075759;28;19916;-50
2022/05/21 17:17:23;;;;;;;;;;;;;;;;;;5075678;28;20397;-53
2022/05/21 17:19:50;;;;;;;;;;;;;;;;;;5076097;28;20282;-45
2022/05/21 17:22:17;;;;;;;;;;;;;;;;;;5075896;28;19939;-51